createdAt,value
2023-05-05T00:05:21.416Z,99062.57
2023-05-05T00:12:53.187Z,99063.58
2023-05-05T00:19:56.757Z,99056.96
2023-05-05T00:26:59.220Z,99062.31
2023-05-05T00:34:11.288Z,99064.79
2023-05-05T00:41:16.251Z,99053.84
2023-05-05T00:48:18.619Z,99049.07
2023-05-05T00:55:21.498Z,99049.76
2023-05-05T01:02:44.518Z,99040.38
2023-05-05T01:10:18.094Z,99041.35
2023-05-05T01:17:40.793Z,99036.63
2023-05-05T01:25:00.927Z,99042.54
2023-05-05T01:32:32.916Z,99044.71
2023-05-05T01:39:41.041Z,99032.73
2023-05-05T01:47:04.155Z,99030.16
2023-05-05T01:54:09.955Z,99030.13
2023-05-05T02:01:38.511Z,99028.27
2023-05-05T02:08:33.932Z,99028.27
2023-05-05T02:15:47.808Z,99023.50
2023-05-05T02:23:11.679Z,99034.55
2023-05-05T02:30:34.708Z,99044.45
2023-05-05T02:37:42.761Z,99045.36
2023-05-05T02:44:47.189Z,99039.73
2023-05-05T02:52:11.189Z,99038.89
2023-05-05T02:59:43.090Z,99041.22
2023-05-05T03:06:41.669Z,99033.37
2023-05-05T03:14:15.416Z,99031.34
2023-05-05T03:21:51.921Z,99028.42
2023-05-05T03:28:56.925Z,99036.32
2023-05-05T03:36:02.503Z,99032.98
2023-05-05T03:43:05.322Z,99040.39
2023-05-05T03:50:10.515Z,99035.38
2023-05-05T03:57:01.007Z,99031.76
2023-05-05T04:04:15.383Z,99034.91
2023-05-05T04:11:23.057Z,99030.30
2023-05-05T04:18:28.376Z,99041.23
2023-05-05T04:25:33.924Z,99038.45
2023-05-05T04:32:56.852Z,99044.29
2023-05-05T04:40:03.348Z,99054.53
2023-05-05T04:47:31.192Z,99073.45
2023-05-05T04:54:47.446Z,99073.52
2023-05-05T05:01:39.097Z,99070.70
2023-05-05T05:08:32.166Z,99081.32
2023-05-05T05:15:38.213Z,99089.55
2023-05-05T05:22:37.136Z,99094.95
2023-05-05T05:29:22.496Z,99101.20
2023-05-05T05:36:24.076Z,99104.70
2023-05-05T05:43:26.693Z,99113.95
2023-05-05T05:50:20.510Z,99115.48
2023-05-05T05:56:56.246Z,99106.60
2023-05-05T06:03:32.791Z,99102.56
2023-05-05T06:10:37.617Z,99102.39
2023-05-05T06:17:31.778Z,99101.34
2023-05-05T06:24:01.380Z,99101.64
2023-05-05T06:30:29.984Z,99106.36
2023-05-05T06:37:33.741Z,99099.67
2023-05-05T06:44:18.816Z,99106.45
2023-05-05T06:51:03.507Z,99099.80
2023-05-05T06:57:43.565Z,99097.08
2023-05-05T07:04:16.919Z,99098.20
2023-05-05T07:11:04.732Z,99097.98
2023-05-05T07:17:33.770Z,99100.54
2023-05-05T07:24:19.061Z,99097.98
2023-05-05T07:30:45.076Z,99099.79
2023-05-05T07:36:33.881Z,99099.86
2023-05-05T07:43:38.309Z,99096.48
2023-05-05T07:49:57.629Z,99091.14
2023-05-05T07:56:30.551Z,99088.71
2023-05-05T08:03:21.480Z,99082.07
2023-05-05T08:09:44.267Z,99086.58
2023-05-05T08:16:33.141Z,99079.52
2023-05-05T08:23:36.106Z,99074.25
2023-05-05T08:30:28.852Z,99078.06
2023-05-05T08:37:31.252Z,99072.00
2023-05-05T08:44:33.294Z,99067.54
2023-05-05T08:51:19.603Z,99064.73
2023-05-05T08:58:09.160Z,99063.11
2023-05-05T09:04:49.825Z,99062.42
2023-05-05T09:11:29.478Z,99060.77
2023-05-05T09:18:12.707Z,99062.20
2023-05-05T09:30:59.521Z,99067.09
2023-05-05T09:36:51.488Z,99066.41
2023-05-05T09:43:12.897Z,99057.73
2023-05-05T09:49:28.580Z,99063.69
2023-05-05T09:55:36.898Z,99066.98
2023-05-05T10:02:44.277Z,99068.23
2023-05-05T10:09:30.697Z,99064.16
2023-05-05T10:15:30.101Z,99055.25
2023-05-05T10:22:04.261Z,99050.14
2023-05-05T10:28:51.307Z,99042.48
2023-05-05T10:36:13.785Z,99040.41
2023-05-05T10:43:19.184Z,99038.92
2023-05-05T10:49:59.624Z,99025.93
2023-05-05T10:57:26.465Z,99028.08
2023-05-05T11:03:59.081Z,99022.85
2023-05-05T11:10:36.506Z,99018.15
2023-05-05T11:16:51.941Z,99007.29
2023-05-05T11:22:55.382Z,99011.56
2023-05-05T11:29:18.431Z,99002.60
2023-05-05T11:35:33.769Z,98996.33
2023-05-05T11:42:10.181Z,98989.48
2023-05-05T11:49:04.088Z,98984.30
2023-05-05T11:55:40.810Z,98987.79
2023-05-05T12:02:42.012Z,98990.89
2023-05-05T12:09:15.685Z,98981.31
2023-05-05T12:15:20.120Z,98971.56
2023-05-05T12:22:22.969Z,98960.73
2023-05-05T12:29:24.747Z,98960.78
2023-05-05T12:36:22.374Z,98964.58
2023-05-05T12:42:51.531Z,98960.00
2023-05-05T12:49:36.552Z,98947.52
2023-05-05T12:56:35.256Z,98944.14
2023-05-05T13:03:35.709Z,98934.42
2023-05-05T13:10:52.851Z,98927.66
2023-05-05T13:18:02.841Z,98912.64
2023-05-05T13:25:06.071Z,98908.98
2023-05-05T13:32:08.498Z,98900.89
2023-05-05T13:38:38.859Z,98891.80
2023-05-05T13:45:21.078Z,98884.12
2023-05-05T13:51:17.474Z,98875.47
2023-05-05T13:56:55.198Z,98867.73
2023-05-05T14:03:03.129Z,98859.04
2023-05-05T14:09:09.304Z,98860.73
2023-05-05T14:14:51.200Z,98858.23
2023-05-05T14:20:25.616Z,98855.16
2023-05-05T14:26:43.606Z,98857.04
2023-05-05T14:33:10.048Z,98853.95
2023-05-05T14:40:05.542Z,98848.81
2023-05-05T14:46:54.570Z,98854.36
2023-05-05T14:53:56.786Z,98853.98
2023-05-05T15:00:25.980Z,98858.08
2023-05-05T15:06:35.761Z,98855.95
2023-05-05T15:12:11.289Z,98851.36
2023-05-05T15:17:30.034Z,98845.07
2023-05-05T15:22:54.280Z,98846.55
2023-05-05T15:28:17.062Z,98839.66
2023-05-05T15:34:26.666Z,98833.39
2023-05-05T15:40:14.601Z,98834.02
2023-05-05T15:46:32.698Z,98832.27
2023-05-05T15:53:36.427Z,98830.98
2023-05-05T16:00:39.285Z,98828.22
2023-05-05T16:07:09.444Z,98826.02
2023-05-05T16:13:57.563Z,98831.55
2023-05-05T16:20:33.959Z,98828.27
2023-05-05T16:26:36.287Z,98838.78
2023-05-05T16:32:58.505Z,98835.52
2023-05-05T16:39:43.745Z,98834.77
2023-05-05T16:45:58.518Z,98832.02
2023-05-05T16:52:43.177Z,98837.58
2023-05-05T16:59:19.690Z,98832.63
2023-05-05T17:06:12.706Z,98829.38
2023-05-05T17:12:24.632Z,98832.43
2023-05-05T17:18:34.636Z,98839.23
2023-05-05T17:25:32.111Z,98845.43
2023-05-05T17:32:34.680Z,98851.73
2023-05-05T17:39:37.480Z,98857.52
2023-05-05T17:46:31.676Z,98858.10
2023-05-05T17:53:35.344Z,98862.40
2023-05-05T18:00:38.539Z,98865.54
2023-05-05T18:07:19.049Z,98867.22
2023-05-05T18:14:22.052Z,98870.20
2023-05-05T18:21:24.636Z,98862.16
2023-05-05T18:28:10.048Z,98861.45
2023-05-05T18:35:12.876Z,98864.35
2023-05-05T18:42:14.726Z,98874.99
2023-05-05T18:49:22.164Z,98880.39
2023-05-05T18:56:03.576Z,98887.33
2023-05-05T19:02:30.865Z,98891.58
2023-05-05T19:08:42.673Z,98895.04
2023-05-05T19:15:45.704Z,98897.11
2023-05-05T19:22:48.623Z,98885.80
2023-05-05T19:29:44.799Z,98878.92
2023-05-05T19:36:48.281Z,98881.49
2023-05-05T19:43:51.487Z,98880.70
2023-05-05T19:50:54.449Z,98879.96
2023-05-05T19:58:02.809Z,98872.71
2023-05-05T20:05:06.907Z,98870.69
2023-05-05T20:11:52.061Z,98871.37
2023-05-05T20:18:54.907Z,98862.48
2023-05-05T20:25:57.916Z,98854.95
2023-05-05T20:33:02.122Z,98849.73
2023-05-05T20:39:57.921Z,98847.77
2023-05-05T20:47:00.976Z,98843.35
2023-05-05T20:54:03.695Z,98840.11
2023-05-05T21:01:11.450Z,98846.60
2023-05-05T21:08:15.551Z,98847.53
2023-05-05T21:15:26.727Z,98843.18
2023-05-05T21:22:18.950Z,98840.20
2023-05-05T21:29:26.253Z,98829.16
2023-05-05T21:36:28.657Z,98813.96
2023-05-05T21:43:31.487Z,98805.33
2023-05-05T21:50:16.990Z,98810.11
2023-05-05T21:57:15.225Z,98812.56
2023-05-05T22:04:18.939Z,98809.39
2023-05-05T22:11:24.824Z,98806.05
2023-05-05T22:18:29.858Z,98812.66
2023-05-05T22:25:33.515Z,98811.83
2023-05-05T22:32:30.911Z,98807.30
2023-05-05T22:39:33.898Z,98804.89
2023-05-05T22:46:38.394Z,98796.05
2023-05-05T22:53:41.198Z,98798.02
2023-05-05T23:00:44.309Z,98792.10
2023-05-05T23:07:48.148Z,98789.20
2023-05-05T23:14:51.080Z,98779.83
2023-05-05T23:21:54.278Z,98789.85
2023-05-05T23:28:57.338Z,98794.95
2023-05-05T23:36:02.432Z,98791.23
2023-05-05T23:43:05.980Z,98787.73
2023-05-05T23:50:09.005Z,98775.78
2023-05-05T23:57:11.894Z,98766.85
